Time;durP1;ratioP1;P1;durP2;ratioP2;P2;SDS_P1;SDS_P2;PMS_P1;PMS_P2;Temp;Humidity;BMP_temperature;BMP_pressure;BME280_temperature;BME280_humidity;BME280_pressure;Samples;Min_cycle;Max_cycle;Signal;HPM_P1;HPM_P2
2022/01/10 00:02:05;;;;;;;;;;;;;;;7.16;95.24;98482.06;4995497;28;1311;-57
2022/01/10 00:04:33;;;;;;;;;;;;;;;7.15;94.36;98484.03;4995501;28;1686;-56
2022/01/10 00:06:59;;;;;;;;;;;;;;;7.14;94.54;98487.19;4995539;28;924;-57
2022/01/10 00:09:27;;;;;;;;;;;;;;;7.15;94.32;98481.28;5012866;28;812;-57
2022/01/10 00:11:54;;;;;;;;;;;;;;;7.13;93.47;98480.16;4995091;28;1316;-57
2022/01/10 00:14:21;;;;;;;;;;;;;;;7.13;93.38;98471.91;5012842;28;860;-57
2022/01/10 00:16:47;;;;;;;;;;;;;;;7.13;93.11;98469.16;5012745;28;1953;-56
2022/01/10 00:19:14;;;;;;;;;;;;;;;7.14;93.75;98463.22;5012752;28;912;-57
2022/01/10 00:21:41;;;;;;;;;;;;;;;7.17;93.24;98461.66;5012477;28;953;-57
2022/01/10 00:24:08;;;;;;;;;;;;;;;7.11;91.58;98458.56;5012502;28;1456;-57
2022/01/10 00:26:35;;;;;;;;;;;;;;;7.15;91.37;98453.03;5012666;28;828;-57
2022/01/10 00:29:02;;;;;;;;;;;;;;;7.15;91.32;98453.81;4995041;28;2208;-57
2022/01/10 00:31:29;;;;;;;;;;;;;;;7.13;91.73;98460.91;5012338;28;969;-57
2022/01/10 00:33:56;;;;;;;;;;;;;;;7.13;91.21;98461.69;5012415;28;891;-57
2022/01/10 00:36:23;;;;;;;;;;;;;;;7.15;91.35;98466.78;5012305;28;1918;-57
2022/01/10 00:38:50;;;;;;;;;;;;;;;7.11;91.12;98464.06;5012232;28;928;-57
2022/01/10 00:41:17;;;;;;;;;;;;;;;7.11;91.35;98461.31;5012324;28;899;-57
2022/01/10 00:43:45;;;;;;;;;;;;;;;7.11;91.19;98463.31;4995016;28;976;-57
2022/01/10 00:46:13;;;;;;;;;;;;;;;7.08;91.32;98464.91;4994711;28;901;-57
2022/01/10 00:48:40;;;;;;;;;;;;;;;7.10;91.29;98469.97;5012381;28;951;-57
2022/01/10 00:51:07;;;;;;;;;;;;;;;7.09;91.23;98457.44;4994618;28;1370;-57
2022/01/10 00:53:34;;;;;;;;;;;;;;;7.04;91.46;98457.88;5012129;28;875;-57
2022/01/10 00:56:01;;;;;;;;;;;;;;;7.05;91.15;98453.94;5012081;28;857;-57
2022/01/10 00:58:28;;;;;;;;;;;;;;;7.04;91.12;98455.94;5011891;28;1937;-57
2022/01/10 01:00:55;;;;;;;;;;;;;;;7.06;91.27;98452.75;5012178;28;829;-57
2022/01/10 01:03:22;;;;;;;;;;;;;;;7.10;92.43;98451.50;5012042;28;828;-57
2022/01/10 01:05:48;;;;;;;;;;;;;;;7.07;92.11;98446.84;5011998;28;864;-57
2022/01/10 01:08:15;;;;;;;;;;;;;;;7.05;92.15;98449.22;5012019;28;868;-57
2022/01/10 01:11:13;;;;;;;;;;;;;;;7.09;91.39;98449.97;4994327;28;1275;-57
2022/01/10 01:14:06;;;;;;;;;;;;;;;7.11;92.61;98450.34;5011506;28;1694;-57
2022/01/10 01:24:33;;;;;;;;;;;;;;;7.03;92.36;98443.38;5011736;28;1519;-57
2022/01/10 01:27:00;;;;;;;;;;;;;;;7.02;92.30;98452.81;4994104;28;1237;-57
2022/01/10 01:29:29;;;;;;;;;;;;;;;7.02;92.97;98446.50;5011694;28;852;-57
2022/01/10 01:31:55;;;;;;;;;;;;;;;7.01;92.74;98440.25;5011219;28;852;-57
2022/01/10 01:34:23;;;;;;;;;;;;;;;7.04;92.78;98449.63;5011597;28;1274;-57
2022/01/10 01:36:52;;;;;;;;;;;;;;;7.04;92.78;98446.88;5011616;28;1981;-57
2022/01/10 01:39:25;;;;;;;;;;;;;;;7.04;93.17;98442.19;5011459;28;963;-57
2022/01/10 01:42:01;;;;;;;;;;;;;;;7.06;93.41;98447.25;5011368;28;920;-57
2022/01/10 01:44:28;;;;;;;;;;;;;;;7.06;92.92;98431.56;5011629;28;809;-57
2022/01/10 01:46:55;;;;;;;;;;;;;;;7.06;93.63;98434.31;5011495;28;879;-57
2022/01/10 01:49:22;;;;;;;;;;;;;;;7.07;94.18;98429.59;4993949;28;1339;-57
2022/01/10 01:51:49;;;;;;;;;;;;;;;7.10;93.87;98424.03;5011466;28;927;-57
2022/01/10 01:54:17;;;;;;;;;;;;;;;7.06;94.03;98422.53;5011506;28;854;-57
2022/01/10 01:56:44;;;;;;;;;;;;;;;7.06;93.77;98419.78;4993705;28;1961;-57
2022/01/10 01:59:12;;;;;;;;;;;;;;;7.03;94.06;98415.13;5011426;28;864;-57
2022/01/10 02:01:38;;;;;;;;;;;;;;;6.97;93.80;98427.75;5011585;28;884;-57
2022/01/10 02:04:06;;;;;;;;;;;;;;;6.98;94.42;98430.09;5011377;28;828;-57
2022/01/10 02:06:33;;;;;;;;;;;;;;;7.01;94.54;98418.28;4994040;28;900;-57
2022/01/10 02:09:00;;;;;;;;;;;;;;;7.04;94.28;98431.19;4993779;28;1331;-57
2022/01/10 02:11:28;;;;;;;;;;;;;;;7.09;94.44;98425.25;5011265;28;935;-57
2022/01/10 02:13:54;;;;;;;;;;;;;;;7.11;94.56;98428.34;5011546;28;993;-57
2022/01/10 02:16:32;;;;;;;;;;;;;;;7.14;94.55;98433.00;5011265;28;921;-57
2022/01/10 02:18:59;;;;;;;;;;;;;;;7.16;94.55;98441.63;4993619;28;1224;-56
2022/01/10 02:21:26;;;;;;;;;;;;;;;7.21;94.86;98445.09;5011139;28;877;-57
2022/01/10 02:23:54;;;;;;;;;;;;;;;7.23;94.91;98450.97;5011053;28;1275;-57
2022/01/10 02:26:22;;;;;;;;;;;;;;;7.20;94.86;98451.81;5012138;28;765;-57
2022/01/10 02:28:49;;;;;;;;;;;;;;;7.22;95.42;98449.41;5011485;28;962;-57
2022/01/10 02:31:16;;;;;;;;;;;;;;;7.15;95.40;98445.56;4977618;28;1258;-57
2022/01/10 02:33:43;;;;;;;;;;;;;;;7.18;95.02;98446.72;4994093;28;1408;-57
2022/01/10 02:36:19;;;;;;;;;;;;;;;7.15;95.41;98450.28;4993677;28;1335;-57
2022/01/10 02:38:49;;;;;;;;;;;;;;;7.13;95.89;98452.69;4993366;28;1914;-57
2022/01/10 02:41:27;;;;;;;;;;;;;;;7.15;95.61;98455.78;5011015;28;864;-57
2022/01/10 02:43:55;;;;;;;;;;;;;;;7.13;95.45;98461.69;5011262;28;820;-57
2022/01/10 02:46:22;;;;;;;;;;;;;;;7.13;95.79;98455.44;5014525;28;829;-57
2022/01/10 02:48:49;;;;;;;;;;;;;;;7.15;96.15;98451.06;5014411;28;876;-57
2022/01/10 02:51:16;;;;;;;;;;;;;;;7.16;95.50;98443.59;5014490;28;886;-57
2022/01/10 02:53:43;;;;;;;;;;;;;;;7.21;96.29;98443.16;5014225;28;907;-57
2022/01/10 02:56:10;;;;;;;;;;;;;;;7.21;96.32;98447.84;5014287;28;1024;-57
2022/01/10 02:58:37;;;;;;;;;;;;;;;7.17;95.73;98447.91;5014075;28;1962;-57
2022/01/10 03:01:04;;;;;;;;;;;;;;;7.18;96.22;98454.94;5014290;28;833;-57
2022/01/10 03:03:31;;;;;;;;;;;;;;;7.19;96.08;98458.47;5014151;28;817;-57
2022/01/10 03:05:59;;;;;;;;;;;;;;;7.21;96.38;98456.91;4980419;28;1255;-57
2022/01/10 03:08:27;;;;;;;;;;;;;;;7.21;96.12;98461.59;5014095;28;841;-57
2022/01/10 03:10:54;;;;;;;;;;;;;;;7.14;95.96;98467.97;4980378;28;1252;-57
2022/01/10 03:13:21;;;;;;;;;;;;;;;7.15;97.00;98455.78;5014208;28;935;-57
2022/01/10 03:15:47;;;;;;;;;;;;;;;7.17;96.81;98467.16;5013873;28;880;-57
2022/01/10 03:18:14;;;;;;;;;;;;;;;7.20;96.61;98468.28;5013630;28;1910;-57
2022/01/10 03:20:41;;;;;;;;;;;;;;;7.13;96.18;98466.41;5013860;28;935;-57
2022/01/10 03:23:09;;;;;;;;;;;;;;;7.09;96.68;98468.44;5013639;28;1252;-56
2022/01/10 03:25:36;;;;;;;;;;;;;;;7.08;96.70;98466.84;4996229;28;1268;-57
2022/01/10 03:28:03;;;;;;;;;;;;;;;7.08;96.89;98467.66;5013780;28;833;-57
2022/01/10 03:30:30;;;;;;;;;;;;;;;7.06;97.42;98471.97;5013579;28;963;-56
2022/01/10 03:32:58;;;;;;;;;;;;;;;7.08;96.98;98475.09;5013647;28;903;-57
2022/01/10 03:35:25;;;;;;;;;;;;;;;7.06;97.25;98481.03;5013463;28;856;-56
2022/01/10 03:37:52;;;;;;;;;;;;;;;7.07;96.93;98484.53;5013615;28;1922;-57
2022/01/10 03:40:19;;;;;;;;;;;;;;;7.06;96.97;98489.25;5013550;28;966;-57
2022/01/10 03:42:46;;;;;;;;;;;;;;;7.05;97.61;98481.44;4995939;28;1805;-57
2022/01/10 03:45:13;;;;;;;;;;;;;;;7.03;97.76;98472.81;5013438;28;839;-57
2022/01/10 03:47:40;;;;;;;;;;;;;;;7.03;97.99;98475.56;4995781;28;1480;-57
2022/01/10 03:50:07;;;;;;;;;;;;;;;7.03;98.17;98472.81;4995707;28;1224;-57
2022/01/10 03:52:34;;;;;;;;;;;;;;;7.06;98.06;98482.97;4995672;28;1268;-57
2022/01/10 03:55:01;;;;;;;;;;;;;;;6.99;98.53;98483.06;5012818;28;880;-57
2022/01/10 03:57:27;;;;;;;;;;;;;;;7.03;98.73;98484.56;4995545;28;1890;-57
2022/01/10 03:59:54;;;;;;;;;;;;;;;7.09;98.20;98482.94;5012910;28;849;-57
2022/01/10 04:02:23;;;;;;;;;;;;;;;7.10;97.93;98481.72;5013038;28;914;-57
2022/01/10 04:04:51;;;;;;;;;;;;;;;7.12;98.64;98484.06;4979706;28;1884;-57
2022/01/10 04:07:18;;;;;;;;;;;;;;;7.16;98.34;98487.56;4995337;28;1305;-57
2022/01/10 04:09:47;;;;;;;;;;;;;;;7.19;98.64;98489.50;5012769;28;922;-57
2022/01/10 04:12:14;;;;;;;;;;;;;;;7.21;98.33;98483.56;4995086;28;2141;-57
2022/01/10 04:14:41;;;;;;;;;;;;;;;7.24;98.41;98493.75;5013212;28;872;-57
2022/01/10 04:17:08;;;;;;;;;;;;;;;7.25;98.66;98487.84;4995209;28;1890;-57
2022/01/10 04:19:34;;;;;;;;;;;;;;;7.30;98.99;98486.63;5012639;28;845;-57
2022/01/10 04:22:01;;;;;;;;;;;;;;;7.27;98.48;98487.44;5012605;28;923;-57
2022/01/10 04:24:28;;;;;;;;;;;;;;;7.27;97.99;98484.69;4994692;28;1311;-57
2022/01/10 04:26:55;;;;;;;;;;;;;;;7.23;97.92;98492.97;5012615;28;876;-57
2022/01/10 04:29:22;;;;;;;;;;;;;;;7.25;97.89;98498.06;5012633;28;856;-57
2022/01/10 04:31:49;;;;;;;;;;;;;;;7.28;98.14;98505.50;5012586;28;852;-57
2022/01/10 04:34:16;;;;;;;;;;;;;;;7.32;97.97;98503.47;5012655;28;863;-57
2022/01/10 04:36:43;;;;;;;;;;;;;;;7.32;97.73;98503.47;4994728;28;1977;-57
2022/01/10 04:39:10;;;;;;;;;;;;;;;7.28;96.86;98511.00;5012225;28;949;-57
2022/01/10 04:41:37;;;;;;;;;;;;;;;7.32;97.65;98514.47;5012354;28;875;-57
2022/01/10 04:44:04;;;;;;;;;;;;;;;7.37;97.43;98508.50;4994755;28;2223;-57
2022/01/10 04:46:32;;;;;;;;;;;;;;;7.42;97.51;98518.25;5012037;28;888;-57
2022/01/10 04:49:00;;;;;;;;;;;;;;;7.45;97.33;98514.72;5012321;28;879;-57
2022/01/10 04:51:29;;;;;;;;;;;;;;;7.46;97.08;98519.00;4994593;28;1184;-57
2022/01/10 04:53:56;;;;;;;;;;;;;;;7.46;97.11;98513.50;5012217;28;992;-57
2022/01/10 04:56:23;;;;;;;;;;;;;;;7.44;96.90;98511.16;5012163;28;844;-57
2022/01/10 04:58:51;;;;;;;;;;;;;;;7.46;96.90;98513.50;5011977;28;1882;-57
2022/01/10 05:01:18;;;;;;;;;;;;;;;7.43;96.95;98512.34;4994472;28;857;-57
2022/01/10 05:03:46;;;;;;;;;;;;;;;7.40;96.56;98524.16;5011936;28;952;-57
2022/01/10 05:06:12;;;;;;;;;;;;;;;7.45;96.70;98511.97;4994190;28;869;-57
2022/01/10 05:08:39;;;;;;;;;;;;;;;7.46;96.88;98516.25;4993927;28;879;-57
2022/01/10 05:11:06;;;;;;;;;;;;;;;7.48;97.33;98508.38;4994310;28;1209;-57
2022/01/10 05:13:33;;;;;;;;;;;;;;;7.46;96.95;98508.00;5012199;28;999;-57
2022/01/10 05:16:00;;;;;;;;;;;;;;;7.42;96.82;98513.53;4994247;28;1351;-57
2022/01/10 05:18:27;;;;;;;;;;;;;;;7.45;96.92;98509.97;4994094;28;2165;-57
2022/01/10 05:20:54;;;;;;;;;;;;;;;7.46;96.53;98525.28;5011818;28;886;-57
2022/01/10 05:23:21;;;;;;;;;;;;;;;7.49;95.67;98516.22;4993970;28;1224;-57
2022/01/10 05:25:47;;;;;;;;;;;;;;;7.54;95.67;98523.22;5011690;28;837;-57
2022/01/10 05:28:17;;;;;;;;;;;;;;;7.51;95.81;98518.53;5011753;28;879;-57
2022/01/10 05:30:45;;;;;;;;;;;;;;;7.55;95.97;98528.31;5011695;28;923;-57
2022/01/10 05:33:13;;;;;;;;;;;;;;;7.56;95.89;98529.84;4994306;28;927;-57
2022/01/10 05:35:40;;;;;;;;;;;;;;;7.58;95.23;98526.69;5011756;28;974;-57
2022/01/10 05:38:07;;;;;;;;;;;;;;;7.57;95.27;98533.38;4994061;28;1907;-57
2022/01/10 05:40:34;;;;;;;;;;;;;;;7.57;94.71;98544.38;5011574;28;924;-57
2022/01/10 05:43:01;;;;;;;;;;;;;;;7.59;95.56;98546.72;5011503;28;923;-57
2022/01/10 05:45:28;;;;;;;;;;;;;;;7.57;95.38;98536.13;5011760;28;958;-57
2022/01/10 05:47:55;;;;;;;;;;;;;;;7.43;95.45;98531.59;4993917;28;846;-57
2022/01/10 05:50:33;;;;;;;;;;;;;;;7.46;94.84;98532.75;4977853;28;1405;-57
2022/01/10 05:53:01;;;;;;;;;;;;;;;7.51;94.84;98541.31;4993893;28;1880;-57
2022/01/10 05:55:28;;;;;;;;;;;;;;;7.51;94.87;98546.03;4993814;28;1459;-57
2022/01/10 05:57:55;;;;;;;;;;;;;;;7.57;95.13;98549.88;5011441;28;1890;-56
2022/01/10 06:00:22;;;;;;;;;;;;;;;7.46;95.23;98547.25;5011386;28;915;-56
2022/01/10 06:02:49;;;;;;;;;;;;;;;7.50;95.22;98548.00;5011379;28;887;-56
2022/01/10 06:05:16;;;;;;;;;;;;;;;7.50;94.17;98555.47;4993769;28;1361;-56
2022/01/10 06:07:44;;;;;;;;;;;;;;;7.51;94.66;98560.56;4993690;28;1397;-56
2022/01/10 06:10:11;;;;;;;;;;;;;;;7.43;94.84;98553.59;4993762;28;1343;-56
2022/01/10 06:12:37;;;;;;;;;;;;;;;7.55;94.38;98568.75;4993593;28;1518;-56
2022/01/10 06:15:04;;;;;;;;;;;;;;;7.60;94.18;98565.56;5011270;28;864;-56
2022/01/10 06:17:31;;;;;;;;;;;;;;;7.51;94.55;98563.31;5011278;28;1945;-56
2022/01/10 06:19:59;;;;;;;;;;;;;;;7.47;94.85;98559.84;5014629;28;909;-56
2022/01/10 06:22:26;;;;;;;;;;;;;;;7.43;94.89;98561.84;4997420;28;2311;-56
2022/01/10 06:24:53;;;;;;;;;;;;;;;7.49;95.01;98567.66;5014758;28;1274;-56
2022/01/10 06:27:20;;;;;;;;;;;;;;;7.45;94.52;98564.97;5014702;28;969;-56
2022/01/10 06:29:47;;;;;;;;;;;;;;;7.47;93.80;98557.09;4997229;28;1216;-56
2022/01/10 06:32:14;;;;;;;;;;;;;;;7.45;93.97;98553.97;5014683;28;866;-55
2022/01/10 06:34:41;;;;;;;;;;;;;;;7.41;94.32;98550.47;5014837;28;844;-56
2022/01/10 06:37:08;;;;;;;;;;;;;;;7.41;94.23;98550.47;4997006;28;1910;-56
2022/01/10 06:39:34;;;;;;;;;;;;;;;7.34;93.86;98534.84;5014650;28;856;-56
2022/01/10 06:42:01;;;;;;;;;;;;;;;7.30;94.23;98525.09;5014489;28;966;-56
2022/01/10 06:44:33;;;;;;;;;;;;;;;7.28;94.44;98530.22;5014585;28;892;-56
2022/01/10 06:46:59;;;;;;;;;;;;;;;7.26;94.68;98532.59;5014604;28;899;-55
2022/01/10 06:49:26;;;;;;;;;;;;;;;7.26;94.77;98540.84;5014601;28;880;-55
2022/01/10 06:51:52;;;;;;;;;;;;;;;7.27;94.29;98539.66;5014467;28;852;-55
2022/01/10 06:54:18;;;;;;;;;;;;;;;7.25;94.08;98542.78;5014496;28;841;-56
2022/01/10 06:56:44;;;;;;;;;;;;;;;7.26;94.54;98538.09;5014262;28;1957;-55
2022/01/10 06:59:10;;;;;;;;;;;;;;;7.26;94.11;98529.84;5014367;28;856;-55
2022/01/10 07:01:38;;;;;;;;;;;;;;;7.30;94.10;98534.13;5014491;28;892;-56
2022/01/10 07:04:05;;;;;;;;;;;;;;;7.36;93.41;98515.19;4996568;28;1292;-55
2022/01/10 07:06:33;;;;;;;;;;;;;;;7.42;92.94;98518.25;5014130;28;849;-56
2022/01/10 07:09:09;;;;;;;;;;;;;;;7.46;92.81;98527.25;5014139;28;887;-56
2022/01/10 07:11:36;;;;;;;;;;;;;;;7.50;92.59;98527.97;5014282;28;802;-56
2022/01/10 07:14:06;;;;;;;;;;;;;;;7.49;93.11;98529.97;5014475;28;1044;-56
2022/01/10 07:16:36;;;;;;;;;;;;;;;7.53;92.54;98525.19;4996580;28;864;-56
2022/01/10 07:19:05;;;;;;;;;;;;;;;7.59;92.10;98525.50;5013961;28;845;-56
2022/01/10 07:21:31;;;;;;;;;;;;;;;7.66;91.32;98525.41;5013996;28;824;-56
2022/01/10 07:23:58;;;;;;;;;;;;;;;7.71;90.88;98551.66;5013880;28;1259;-56
2022/01/10 07:26:27;;;;;;;;;;;;;;;7.74;91.24;98543.34;4996196;28;1426;-56
2022/01/10 07:28:55;;;;;;;;;;;;;;;7.73;91.08;98541.03;4995985;28;1308;-56
2022/01/10 07:31:22;;;;;;;;;;;;;;;7.67;91.05;98550.94;5012904;28;836;-56
2022/01/10 07:33:49;;;;;;;;;;;;;;;7.63;91.33;98547.44;4996292;28;860;-56
2022/01/10 07:36:22;;;;;;;;;;;;;;;7.57;91.91;98539.69;5013359;28;1094;-56
2022/01/10 07:38:50;;;;;;;;;;;;;;;7.54;91.77;98545.97;4995868;28;1993;-56
2022/01/10 07:41:17;;;;;;;;;;;;;;;7.50;92.07;98550.75;5013520;28;856;-56
2022/01/10 07:43:45;;;;;;;;;;;;;;;7.51;91.87;98559.75;5013662;28;860;-56
2022/01/10 07:46:11;;;;;;;;;;;;;;;7.54;92.98;98551.47;5013421;28;871;-56
2022/01/10 07:48:39;;;;;;;;;;;;;;;7.57;93.10;98547.13;4995769;28;1168;-57
2022/01/10 07:51:09;;;;;;;;;;;;;;;7.55;92.88;98553.06;5013326;28;870;-56
2022/01/10 07:53:40;;;;;;;;;;;;;;;7.50;93.08;98558.22;5013795;28;856;-57
2022/01/10 07:59:22;;;;;;;;;;;;;;;7.29;94.91;98556.50;4993063;28;1132;-55
2022/01/10 08:01:49;;;;;;;;;;;;;;;7.23;95.73;98556.16;5013018;28;948;-55
2022/01/10 08:04:16;;;;;;;;;;;;;;;7.19;96.05;98558.19;5012895;28;963;-55
2022/01/10 08:07:00;;;;;;;;;;;;;;;7.19;97.16;98571.94;5013037;28;821;-56
2022/01/10 08:09:29;;;;;;;;;;;;;;;7.20;97.09;98567.22;5013045;28;935;-56
2022/01/10 08:11:59;;;;;;;;;;;;;;;7.20;97.40;98569.97;5012938;28;1173;-56
2022/01/10 08:14:27;;;;;;;;;;;;;;;7.20;97.19;98569.97;5012841;28;908;-56
2022/01/10 08:16:54;;;;;;;;;;;;;;;7.20;96.71;98573.50;5012809;28;1953;-56
2022/01/10 08:19:20;;;;;;;;;;;;;;;7.17;97.61;98571.56;5012752;28;979;-57
2022/01/10 08:21:47;;;;;;;;;;;;;;;7.14;97.09;98562.16;5012711;28;892;-57
2022/01/10 08:24:13;;;;;;;;;;;;;;;7.13;97.13;98566.09;5012715;28;1382;-57
2022/01/10 08:26:40;;;;;;;;;;;;;;;7.11;97.15;98568.47;5012670;28;884;-58
2022/01/10 08:29:07;;;;;;;;;;;;;;;7.09;98.17;98565.38;5012774;28;958;-56
2022/01/10 08:31:34;;;;;;;;;;;;;;;7.07;97.79;98559.50;5012587;28;841;-53
2022/01/10 08:34:03;;;;;;;;;;;;;;;7.04;98.33;98570.50;5012442;28;896;-56
2022/01/10 08:36:30;;;;;;;;;;;;;;;7.02;98.12;98561.91;5012374;28;959;-55
2022/01/10 08:38:57;;;;;;;;;;;;;;;7.01;98.59;98569.38;5012334;28;1971;-55
2022/01/10 08:41:23;;;;;;;;;;;;;;;7.01;98.78;98576.84;5012509;28;852;-55
2022/01/10 08:43:50;;;;;;;;;;;;;;;7.01;98.04;98569.38;5012412;28;832;-57
2022/01/10 08:46:16;;;;;;;;;;;;;;;7.01;98.38;98566.63;5012372;28;891;-54
2022/01/10 08:48:44;;;;;;;;;;;;;;;7.03;98.49;98567.00;5012336;28;880;-53
2022/01/10 08:51:10;;;;;;;;;;;;;;;7.06;98.65;98555.19;5012521;28;932;-54
2022/01/10 08:53:37;;;;;;;;;;;;;;;7.12;97.69;98561.00;5012222;28;828;-53
2022/01/10 08:56:04;;;;;;;;;;;;;;;7.14;97.55;98553.91;5012204;28;920;-51
2022/01/10 08:58:32;;;;;;;;;;;;;;;7.21;98.13;98568.75;5011887;28;1914;-53
2022/01/10 09:01:04;;;;;;;;;;;;;;;7.26;97.62;98551.84;5012010;28;915;-51
2022/01/10 09:03:31;;;;;;;;;;;;;;;7.28;97.02;98544.75;5012009;28;951;-51
2022/01/10 09:05:58;;;;;;;;;;;;;;;7.34;96.83;98532.09;5011886;28;873;-55
2022/01/10 09:08:32;;;;;;;;;;;;;;;7.42;96.52;98549.28;5012087;28;841;-56
2022/01/10 09:10:59;;;;;;;;;;;;;;;7.48;95.67;98544.88;5012202;28;938;-50
2022/01/10 09:13:25;;;;;;;;;;;;;;;7.54;95.35;98526.75;5012527;28;1015;-51
2022/01/10 09:15:52;;;;;;;;;;;;;;;7.60;94.68;98529.03;5012092;28;864;-50
2022/01/10 09:18:18;;;;;;;;;;;;;;;7.66;94.20;98536.41;5012095;28;1882;-50
2022/01/10 09:20:45;;;;;;;;;;;;;;;7.69;93.76;98540.31;5011953;28;867;-53
2022/01/10 09:23:12;;;;;;;;;;;;;;;7.74;92.72;98531.59;5012129;28;1350;-55
2022/01/10 09:25:39;;;;;;;;;;;;;;;7.81;93.50;98545.25;5012304;28;808;-56
2022/01/10 09:28:05;;;;;;;;;;;;;;;7.91;92.01;98547.06;5011984;28;864;-56
2022/01/10 09:30:31;;;;;;;;;;;;;;;8.03;91.99;98525.69;5011805;28;805;-56
2022/01/10 09:32:57;;;;;;;;;;;;;;;8.17;90.95;98531.75;5011515;28;960;-56
2022/01/10 09:35:24;;;;;;;;;;;;;;;8.28;90.25;98534.34;5011600;28;872;-57
2022/01/10 09:37:51;;;;;;;;;;;;;;;8.38;90.22;98536.13;5011624;28;1973;-57
2022/01/10 09:40:18;;;;;;;;;;;;;;;8.48;89.84;98539.94;5011653;28;876;-57
2022/01/10 09:42:45;;;;;;;;;;;;;;;8.52;88.99;98528.84;5011506;28;924;-57
2022/01/10 09:45:12;;;;;;;;;;;;;;;8.56;88.49;98538.63;5011624;28;892;-57
2022/01/10 09:47:38;;;;;;;;;;;;;;;8.65;88.07;98538.06;5011715;28;883;-57
2022/01/10 09:50:07;;;;;;;;;;;;;;;8.84;87.25;98552.31;5011522;28;911;-57
2022/01/10 09:52:34;;;;;;;;;;;;;;;8.92;86.20;98539.97;5011445;28;948;-57
2022/01/10 09:55:01;;;;;;;;;;;;;;;8.99;86.42;98553.59;5015296;28;816;-57
2022/01/10 09:57:27;;;;;;;;;;;;;;;8.98;86.75;98541.00;5015442;28;1878;-56
2022/01/10 09:59:53;;;;;;;;;;;;;;;8.93;87.36;98549.78;5015489;28;844;-56
2022/01/10 10:02:20;;;;;;;;;;;;;;;8.86;87.08;98569.22;5015364;28;821;-56
2022/01/10 10:04:47;;;;;;;;;;;;;;;8.79;86.62;98561.84;5015475;28;876;-56
2022/01/10 10:07:15;;;;;;;;;;;;;;;8.75;87.34;98567.41;5015613;28;813;-56
2022/01/10 10:09:42;;;;;;;;;;;;;;;8.76;87.50;98579.19;5015181;28;867;-56
2022/01/10 10:12:08;;;;;;;;;;;;;;;8.79;88.38;98576.41;5015137;28;1021;-56
2022/01/10 10:14:34;;;;;;;;;;;;;;;8.75;88.26;98583.94;5015157;28;821;-56
2022/01/10 10:17:08;;;;;;;;;;;;;;;8.80;88.62;98582.69;5015007;28;1886;-56
2022/01/10 10:19:35;;;;;;;;;;;;;;;8.79;87.99;98583.88;5015155;28;959;-56
2022/01/10 10:22:01;;;;;;;;;;;;;;;8.62;88.39;98577.47;5015557;28;860;-55
2022/01/10 10:24:28;;;;;;;;;;;;;;;8.49;88.72;98577.28;5015384;28;1247;-56
2022/01/10 10:26:56;;;;;;;;;;;;;;;8.57;89.35;98578.72;5015090;28;864;-56
2022/01/10 10:29:22;;;;;;;;;;;;;;;8.52;88.42;98578.44;5015197;28;895;-55
2022/01/10 10:31:50;;;;;;;;;;;;;;;8.42;89.59;98574.63;5014982;28;858;-56
2022/01/10 10:34:22;;;;;;;;;;;;;;;8.31;89.15;98587.78;5014885;28;961;-55
2022/01/10 10:37:08;;;;;;;;;;;;;;;8.30;90.25;98589.75;5014632;28;1973;-56
2022/01/10 10:39:36;;;;;;;;;;;;;;;8.27;90.56;98590.56;5014606;28;857;-54
2022/01/10 10:42:03;;;;;;;;;;;;;;;8.23;90.99;98583.56;5014737;28;857;-55
2022/01/10 10:44:31;;;;;;;;;;;;;;;8.20;91.72;98596.19;5014441;28;931;-56
2022/01/10 10:46:58;;;;;;;;;;;;;;;8.14;90.72;98584.09;5014512;28;904;-54
2022/01/10 10:49:31;;;;;;;;;;;;;;;8.06;91.84;98590.88;5014403;28;956;-55
2022/01/10 10:51:59;;;;;;;;;;;;;;;8.04;91.94;98588.53;5014449;28;943;-55
2022/01/10 10:54:31;;;;;;;;;;;;;;;8.07;92.04;98590.47;5014319;28;832;-56
2022/01/10 10:57:00;;;;;;;;;;;;;;;8.10;91.57;98578.63;5014258;28;1886;-55
2022/01/10 10:59:30;;;;;;;;;;;;;;;8.16;92.07;98587.97;5014790;28;797;-55
2022/01/10 11:01:58;;;;;;;;;;;;;;;8.19;92.10;98569.84;5014112;28;907;-56
2022/01/10 11:04:24;;;;;;;;;;;;;;;8.24;92.07;98576.88;5013591;28;899;-55
2022/01/10 11:06:51;;;;;;;;;;;;;;;8.32;91.61;98556.28;5013661;28;923;-55
2022/01/10 11:09:18;;;;;;;;;;;;;;;8.22;92.29;98558.03;5014206;28;892;-55
2022/01/10 11:11:46;;;;;;;;;;;;;;;8.06;92.51;98572.38;5014115;28;817;-55
2022/01/10 11:14:14;;;;;;;;;;;;;;;7.80;93.37;98559.41;5014004;28;939;-55
2022/01/10 11:16:44;;;;;;;;;;;;;;;7.67;94.86;98568.22;5013916;28;971;-57
2022/01/10 11:19:12;;;;;;;;;;;;;;;7.60;96.02;98579.31;5013983;28;900;-54
2022/01/10 11:21:40;;;;;;;;;;;;;;;7.55;96.55;98572.31;5013927;28;895;-55
2022/01/10 11:24:06;;;;;;;;;;;;;;;7.54;96.69;98587.22;4996204;28;1410;-55
2022/01/10 11:26:40;;;;;;;;;;;;;;;7.49;97.52;98551.16;5013812;28;870;-56
2022/01/10 11:29:09;;;;;;;;;;;;;;;7.47;97.07;98564.56;5013829;28;844;-55
2022/01/10 11:31:37;;;;;;;;;;;;;;;7.42;97.72;98579.50;5013533;28;932;-55
2022/01/10 11:34:03;;;;;;;;;;;;;;;7.41;97.72;98561.47;5013720;28;860;-55
2022/01/10 11:36:30;;;;;;;;;;;;;;;7.41;97.82;98571.69;5013616;28;950;-58
2022/01/10 11:38:58;;;;;;;;;;;;;;;7.38;97.98;98558.75;5013487;28;1906;-58
2022/01/10 11:41:29;;;;;;;;;;;;;;;7.39;98.09;98552.84;5013714;28;880;-59
2022/01/10 11:44:09;;;;;;;;;;;;;;;7.33;98.01;98554.50;5013669;28;813;-59
2022/01/10 11:46:40;;;;;;;;;;;;;;;7.30;98.35;98560.84;5013403;28;920;-58
2022/01/10 11:49:11;;;;;;;;;;;;;;;7.28;98.05;98560.47;5013417;28;872;-59
2022/01/10 11:51:42;;;;;;;;;;;;;;;7.30;98.60;98578.09;5013368;28;896;-59
2022/01/10 11:54:09;;;;;;;;;;;;;;;7.33;98.67;98585.50;5013263;28;928;-58
2022/01/10 11:56:36;;;;;;;;;;;;;;;7.38;98.60;98589.78;5013294;28;824;-59
2022/01/10 11:59:13;;;;;;;;;;;;;;;7.38;98.19;98591.75;5013047;28;1882;-59
2022/01/10 12:01:43;;;;;;;;;;;;;;;7.40;98.58;98586.63;5013130;28;1006;-58
2022/01/10 12:04:10;;;;;;;;;;;;;;;7.43;98.66;98583.06;5013477;28;895;-58
2022/01/10 12:06:37;;;;;;;;;;;;;;;7.42;98.44;98589.75;5013028;28;800;-58
2022/01/10 12:09:03;;;;;;;;;;;;;;;7.43;98.09;98589.34;5013172;28;867;-58
2022/01/10 12:11:31;;;;;;;;;;;;;;;7.45;97.71;98594.44;5012944;28;852;-58
2022/01/10 12:13:59;;;;;;;;;;;;;;;7.46;97.70;98594.00;5013358;28;957;-58
2022/01/10 12:16:27;;;;;;;;;;;;;;;7.46;97.77;98602.25;5012762;28;888;-57
2022/01/10 12:18:54;;;;;;;;;;;;;;;7.48;96.93;98607.34;5012933;28;1941;-57
2022/01/10 12:21:21;;;;;;;;;;;;;;;7.51;96.54;98609.25;5012878;28;833;-57
2022/01/10 12:23:48;;;;;;;;;;;;;;;7.56;97.06;98617.06;5012834;28;1461;-58
2022/01/10 12:26:14;;;;;;;;;;;;;;;7.61;96.57;98618.59;5012802;28;876;-57
2022/01/10 12:28:44;;;;;;;;;;;;;;;7.63;96.38;98616.22;5012591;28;956;-57
2022/01/10 12:31:11;;;;;;;;;;;;;;;7.66;95.11;98607.13;5012940;28;967;-56
2022/01/10 12:33:37;;;;;;;;;;;;;;;7.65;94.82;98614.59;5012890;28;912;-55
2022/01/10 12:36:05;;;;;;;;;;;;;;;7.70;94.26;98616.91;5012829;28;880;-56
2022/01/10 12:38:32;;;;;;;;;;;;;;;7.66;94.66;98620.88;5012476;28;1953;-57
2022/01/10 12:40:59;;;;;;;;;;;;;;;7.40;95.51;98590.13;5012966;28;821;-55
2022/01/10 12:43:25;;;;;;;;;;;;;;;7.61;96.03;98624.09;5012944;28;880;-55
2022/01/10 12:45:51;;;;;;;;;;;;;;;7.57;96.07;98624.91;5012685;28;853;-55
2022/01/10 12:48:17;;;;;;;;;;;;;;;7.56;95.72;98642.59;5012773;28;860;-55
2022/01/10 12:50:46;;;;;;;;;;;;;;;7.54;96.36;98644.19;5012313;28;908;-56
2022/01/10 12:53:12;;;;;;;;;;;;;;;7.53;96.96;98643.44;5012676;28;907;-56
2022/01/10 12:55:39;;;;;;;;;;;;;;;7.50;97.30;98654.44;5012675;28;827;-56
2022/01/10 12:58:06;;;;;;;;;;;;;;;7.47;97.50;98664.31;5012740;28;1890;-56
2022/01/10 13:00:33;;;;;;;;;;;;;;;7.49;97.44;98678.44;5012185;28;896;-56
2022/01/10 13:03:01;;;;;;;;;;;;;;;7.48;97.89;98668.59;4994577;28;1493;-56
2022/01/10 13:05:28;;;;;;;;;;;;;;;7.48;97.79;98670.56;5012719;28;797;-55
2022/01/10 13:07:56;;;;;;;;;;;;;;;7.48;97.83;98676.06;5012381;28;836;-54
2022/01/10 13:10:29;;;;;;;;;;;;;;;7.50;98.40;98676.44;5012195;28;879;-56
2022/01/10 13:12:57;;;;;;;;;;;;;;;7.51;98.02;98676.06;4994455;28;999;-54
2022/01/10 13:15:23;;;;;;;;;;;;;;;7.49;97.56;98670.19;5012065;28;836;-54
2022/01/10 13:17:54;;;;;;;;;;;;;;;7.53;97.73;98668.16;5011744;28;1882;-56
2022/01/10 13:20:22;;;;;;;;;;;;;;;7.55;96.82;98676.00;5011937;28;848;-56
2022/01/10 13:22:49;;;;;;;;;;;;;;;7.58;97.42;98672.44;5011786;28;1007;-56
2022/01/10 13:25:17;;;;;;;;;;;;;;;7.61;96.93;98677.09;4994195;28;1270;-56
2022/01/10 13:27:52;;;;;;;;;;;;;;;7.65;97.21;98677.84;5011279;28;993;-56
2022/01/10 13:30:18;;;;;;;;;;;;;;;7.69;97.51;98680.56;5011900;28;861;-53